Time;durP1;ratioP1;P1;durP2;ratioP2;P2;SDS_P1;SDS_P2;PMS_P1;PMS_P2;Temp;Humidity;BMP_temperature;BMP_pressure;BME280_temperature;BME280_humidity;BME280_pressure;Samples;Min_cycle;Max_cycle;Signal;HPM_P1;HPM_P2
2022/12/03 00:00:21;;;;;;;4.85;4.45;;;17.30;63.90;;;;;;4954716;29;20617;-70
2022/12/03 00:02:47;;;;;;;4.50;4.10;;;17.30;63.90;;;;;;4954394;29;20225;-71
2022/12/03 00:05:13;;;;;;;4.70;4.30;;;17.30;63.90;;;;;;4938815;29;20210;-71
2022/12/03 00:07:38;;;;;;;4.90;4.40;;;17.30;64.00;;;;;;4938890;29;20186;-71
2022/12/03 00:10:06;;;;;;;5.45;3.95;;;17.30;63.80;;;;;;4954604;29;20273;-70
2022/12/03 00:12:31;;;;;;;5.10;4.40;;;17.30;64.70;;;;;;4954211;28;20194;-71
2022/12/03 00:14:57;;;;;;;5.07;4.57;;;17.30;63.80;;;;;;4938226;29;20214;-71
2022/12/03 00:17:23;;;;;;;4.80;4.40;;;17.30;63.90;;;;;;4954348;29;20635;-71
2022/12/03 00:19:48;;;;;;;5.40;4.90;;;17.30;63.80;;;;;;4954290;29;20179;-71
2022/12/03 00:22:14;;;;;;;4.45;4.05;;;17.30;63.80;;;;;;4954054;29;20179;-71
2022/12/03 00:24:40;;;;;;;4.18;3.75;;;17.30;63.80;;;;;;4954406;29;20194;-70
2022/12/03 00:27:05;;;;;;;4.72;4.32;;;17.30;63.90;;;;;;4938083;29;20179;-70
2022/12/03 00:29:31;;;;;;;4.25;3.85;;;17.30;63.70;;;;;;4954089;29;20549;-71
2022/12/03 00:31:57;;;;;;;4.72;4.00;;;17.30;63.80;;;;;;4953681;29;20221;-71
2022/12/03 00:34:22;;;;;;;4.50;4.10;;;17.30;63.70;;;;;;4937865;29;20199;-71
2022/12/03 00:36:48;;;;;;;4.40;3.95;;;17.30;63.70;;;;;;4954165;29;20210;-71
2022/12/03 00:39:14;;;;;;;4.40;4.00;;;17.30;63.80;;;;;;4938267;29;20190;-71
2022/12/03 00:41:40;;;;;;;4.78;4.35;;;17.30;63.80;;;;;;4969767;28;20183;-71
2022/12/03 00:44:05;;;;;;;4.15;3.75;;;17.30;63.80;;;;;;4953759;28;20194;-70
2022/12/03 00:46:31;;;;;;;4.95;4.45;;;17.30;63.80;;;;;;4937707;29;20210;-71
2022/12/03 00:48:57;;;;;;;4.53;4.07;;;17.30;63.80;;;;;;4937636;29;20244;-71
2022/12/03 00:51:22;;;;;;;4.90;4.40;;;17.30;63.80;;;;;;4947983;29;20246;-71
2022/12/03 00:53:48;;;;;;;4.28;3.88;;;17.30;63.80;;;;;;4950619;29;20198;-71
2022/12/03 00:56:14;;;;;;;4.47;4.07;;;17.30;63.80;;;;;;4950427;29;20206;-71
2022/12/03 00:58:40;;;;;;;3.90;3.60;;;17.30;63.80;;;;;;4934860;29;20661;-71
2022/12/03 01:01:05;;;;;;;4.40;4.00;;;17.30;63.90;;;;;;4950501;29;20238;-71
2022/12/03 01:03:31;;;;;;;3.85;3.47;;;17.30;63.80;;;;;;4950216;29;20224;-71
2022/12/03 01:05:57;;;;;;;4.53;4.13;;;17.30;63.70;;;;;;4953432;29;20221;-71
2022/12/03 01:08:23;;;;;;;4.10;3.70;;;17.30;63.80;;;;;;4953297;29;20194;-71
2022/12/03 01:10:49;;;;;;;4.25;3.85;;;17.30;63.70;;;;;;4953729;29;20206;-71
2022/12/03 01:13:16;;;;;;;4.10;3.72;;;17.30;63.60;;;;;;4953423;29;20213;-71
2022/12/03 01:15:41;;;;;;;4.80;4.32;;;17.30;63.70;;;;;;4937106;29;20678;-70
2022/12/03 01:18:07;;;;;;;4.25;3.85;;;17.30;64.50;;;;;;4937320;29;20193;-70
2022/12/03 01:20:35;;;;;;;4.68;4.20;;;17.30;63.60;;;;;;4953204;29;20182;-71
2022/12/03 01:23:01;;;;;;;4.68;3.90;;;17.30;63.60;;;;;;4953185;29;20269;-71
2022/12/03 01:25:27;;;;;;;4.38;3.97;;;17.30;63.50;;;;;;4937298;29;20216;-71
2022/12/03 01:27:52;;;;;;;3.72;3.42;;;17.30;63.50;;;;;;4937405;29;20194;-71
2022/12/03 01:30:18;;;;;;;3.85;3.55;;;17.30;63.60;;;;;;4937530;29;20221;-71
2022/12/03 01:32:44;;;;;;;4.53;4.05;;;17.30;63.70;;;;;;4936905;29;20729;-71
2022/12/03 01:35:10;;;;;;;3.78;3.47;;;17.30;63.50;;;;;;4937462;29;20670;-71
2022/12/03 01:37:36;;;;;;;4.00;3.60;;;17.30;63.50;;;;;;4953165;29;20182;-69
2022/12/03 01:40:03;;;;;;;4.10;3.70;;;17.30;63.60;;;;;;4953002;29;20186;-71
2022/12/03 01:42:35;;;;;;;4.07;3.67;;;17.30;63.70;;;;;;4952828;29;20252;-71
2022/12/03 01:45:03;;;;;;;4.07;3.63;;;17.30;63.70;;;;;;4953004;29;20214;-71
2022/12/03 01:47:36;;;;;;;3.85;3.53;;;17.30;63.60;;;;;;4953294;28;20189;-71
2022/12/03 01:50:12;;;;;;;3.85;3.53;;;17.30;63.60;;;;;;4953312;29;20202;-71
2022/12/03 01:52:39;;;;;;;4.45;3.92;;;17.30;63.50;;;;;;4953106;28;20188;-71
2022/12/03 01:55:13;;;;;;;3.90;3.60;;;17.30;63.60;;;;;;4951743;28;20215;-71
2022/12/03 01:57:45;;;;;;;4.03;3.72;;;17.30;63.50;;;;;;4969791;28;20180;-71
2022/12/03 02:00:19;;;;;;;4.70;4.30;;;17.30;63.50;;;;;;4938916;29;20184;-71
2022/12/03 02:02:48;;;;;;;3.90;3.60;;;17.30;63.50;;;;;;4953589;29;20218;-71
2022/12/03 02:05:17;;;;;;;4.68;3.60;;;17.20;63.30;;;;;;4953662;28;20238;-71
2022/12/03 02:07:43;;;;;;;3.72;3.42;;;17.30;63.40;;;;;;4953390;28;20187;-71
2022/12/03 02:10:13;;;;;;;3.70;3.40;;;17.30;63.50;;;;;;4953697;28;20226;-71
2022/12/03 02:12:47;;;;;;;3.65;3.35;;;17.30;63.60;;;;;;4953402;28;20191;-71
2022/12/03 02:15:13;;;;;;;4.00;3.60;;;17.30;63.60;;;;;;4953142;28;20305;-71
2022/12/03 02:17:40;;;;;;;4.22;3.83;;;17.30;63.50;;;;;;4953383;28;20191;-71
2022/12/03 02:20:09;;;;;;;4.15;3.75;;;17.30;63.50;;;;;;4953466;29;20246;-71
2022/12/03 02:22:44;;;;;;;3.33;3.03;;;17.30;63.50;;;;;;4953052;28;20280;-71
2022/12/03 02:25:18;;;;;;;3.88;3.50;;;17.30;63.40;;;;;;4937420;29;20722;-71
2022/12/03 02:27:44;;;;;;;3.50;3.20;;;17.30;63.50;;;;;;4953194;28;20223;-71
2022/12/03 02:30:13;;;;;;;3.92;3.60;;;17.30;63.50;;;;;;4952992;29;20278;-71
2022/12/03 02:32:39;;;;;;;3.70;3.40;;;17.30;63.40;;;;;;4952827;29;20845;-71
2022/12/03 02:35:14;;;;;;;3.65;3.35;;;17.30;63.40;;;;;;4952991;28;20298;-71
2022/12/03 02:37:41;;;;;;;3.70;3.40;;;17.30;63.40;;;;;;4974989;28;20184;-73
2022/12/03 02:40:12;;;;;;;3.40;3.10;;;17.30;63.40;;;;;;4981518;28;20167;-73
2022/12/03 02:42:40;;;;;;;3.53;3.22;;;17.30;63.30;;;;;;4949904;29;20222;-67
2022/12/03 02:45:15;;;;;;;3.60;3.30;;;17.30;63.40;;;;;;4950180;29;20234;-71
2022/12/03 02:47:49;;;;;;;3.50;3.20;;;17.30;63.30;;;;;;4973800;28;20248;-71
2022/12/03 02:50:21;;;;;;;3.53;3.22;;;17.30;63.40;;;;;;4955998;29;20257;-71
2022/12/03 02:52:48;;;;;;;3.70;3.30;;;17.30;63.50;;;;;;4955981;29;20183;-71
2022/12/03 02:55:17;;;;;;;3.70;3.40;;;17.30;63.50;;;;;;4955699;28;20205;-70
2022/12/03 02:57:46;;;;;;;3.83;3.53;;;17.30;63.40;;;;;;4957067;29;20170;-71
2022/12/03 03:00:13;;;;;;;3.65;3.35;;;17.30;63.40;;;;;;4955811;29;20217;-71
2022/12/03 03:02:40;;;;;;;3.63;3.33;;;17.30;63.40;;;;;;4955596;29;20755;-71
2022/12/03 03:05:10;;;;;;;3.58;3.28;;;17.30;63.40;;;;;;4939273;28;20217;-71
2022/12/03 03:07:37;;;;;;;4.03;3.63;;;17.30;63.40;;;;;;4956331;28;20202;-71
2022/12/03 03:10:06;;;;;;;3.70;3.40;;;17.30;63.30;;;;;;4955480;29;20206;-71
2022/12/03 03:12:32;;;;;;;3.55;3.25;;;17.30;63.40;;;;;;4939282;29;20186;-70
2022/12/03 03:20:08;;;;;;;3.53;3.20;;;17.30;63.20;;;;;;5013479;28;20294;-69
2022/12/03 03:22:39;;;;;;;3.30;3.00;;;17.20;63.10;;;;;;5013135;28;20219;-69
2022/12/03 03:25:11;;;;;;;3.40;3.10;;;17.30;63.20;;;;;;5006378;28;20180;-68
2022/12/03 03:27:39;;;;;;;3.60;3.30;;;17.30;63.30;;;;;;5013637;28;20172;-69
2022/12/03 03:30:07;;;;;;;4.10;3.72;;;17.30;63.30;;;;;;5013439;28;20605;-69
2022/12/03 03:32:36;;;;;;;3.45;3.15;;;17.30;63.30;;;;;;4997136;28;20333;-69
2022/12/03 03:35:03;;;;;;;4.40;3.42;;;17.30;63.30;;;;;;5013465;28;20184;-69
2022/12/03 03:37:29;;;;;;;3.83;3.50;;;17.30;63.30;;;;;;5013364;28;20192;-69
2022/12/03 03:39:55;;;;;;;3.42;3.13;;;17.30;63.20;;;;;;5013294;28;20625;-69
2022/12/03 03:42:22;;;;;;;3.70;3.40;;;17.30;63.20;;;;;;5013069;28;20321;-69
2022/12/03 03:44:48;;;;;;;3.65;3.30;;;17.30;63.30;;;;;;5013153;28;20215;-69
2022/12/03 03:47:16;;;;;;;3.80;3.50;;;17.30;63.20;;;;;;5013551;28;20203;-69
2022/12/03 03:49:42;;;;;;;3.80;3.50;;;17.30;63.20;;;;;;5014544;28;20191;-69
2022/12/03 03:52:10;;;;;;;3.80;3.40;;;17.30;63.20;;;;;;5013130;28;20265;-69
2022/12/03 03:54:37;;;;;;;4.03;3.67;;;17.30;63.30;;;;;;5013102;28;20245;-69
2022/12/03 03:57:03;;;;;;;3.50;3.20;;;17.30;63.10;;;;;;5013006;28;20200;-69
2022/12/03 03:59:29;;;;;;;3.70;3.30;;;17.30;63.10;;;;;;5012970;28;20184;-69
2022/12/03 04:01:55;;;;;;;3.67;3.38;;;17.30;63.20;;;;;;5012830;28;20629;-67
2022/12/03 04:04:25;;;;;;;3.50;3.13;;;17.30;63.10;;;;;;5012815;28;20262;-69
2022/12/03 04:06:51;;;;;;;3.47;3.17;;;17.30;63.10;;;;;;5012937;28;20204;-69
2022/12/03 04:09:17;;;;;;;3.70;3.40;;;17.30;63.10;;;;;;5012703;28;20184;-69
2022/12/03 04:14:27;;;;;;;3.25;2.95;;;17.30;63.20;;;;;;5013957;28;20178;-69
2022/12/03 04:16:53;;;;;;;3.67;3.33;;;17.30;63.20;;;;;;5012262;28;20208;-69
2022/12/03 04:19:18;;;;;;;3.30;3.00;;;17.30;63.20;;;;;;5012716;28;20279;-69
2022/12/03 04:24:29;;;;;;;4.03;3.60;;;17.30;63.20;;;;;;5013737;28;20184;-69
2022/12/03 04:29:38;;;;;;;3.53;3.22;;;17.30;63.10;;;;;;5013751;28;20204;-69
2022/12/03 04:37:33;;;;;;;3.53;3.22;;;17.20;63.00;;;;;;5013512;28;20168;-69
2022/12/03 04:39:59;;;;;;;3.78;3.42;;;17.30;63.20;;;;;;5012246;28;20203;-69
2022/12/03 04:42:25;;;;;;;3.83;3.42;;;17.30;63.30;;;;;;5012186;28;20652;-69
2022/12/03 04:44:50;;;;;;;3.78;3.47;;;17.30;63.20;;;;;;5012402;28;20183;-69
2022/12/03 04:47:19;;;;;;;3.42;3.15;;;17.30;63.20;;;;;;5013338;28;20276;-70
2022/12/03 04:49:48;;;;;;;3.65;3.15;;;17.30;63.10;;;;;;5012033;28;20561;-69
2022/12/03 04:52:18;;;;;;;3.95;3.55;;;17.30;63.20;;;;;;5013073;28;20192;-69
2022/12/03 04:54:44;;;;;;;3.53;3.22;;;17.30;63.20;;;;;;5012257;28;20187;-69
2022/12/03 04:57:11;;;;;;;3.80;3.50;;;17.30;63.10;;;;;;5011757;28;20219;-69
2022/12/03 04:59:38;;;;;;;4.00;3.70;;;17.30;63.10;;;;;;5011929;28;20184;-69
2022/12/03 05:02:05;;;;;;;3.65;3.33;;;17.30;63.00;;;;;;5011630;28;20275;-69
2022/12/03 05:04:31;;;;;;;3.83;3.42;;;17.30;63.10;;;;;;5011806;28;20188;-69
2022/12/03 05:06:57;;;;;;;3.80;3.50;;;17.30;63.10;;;;;;5028472;28;20204;-69
2022/12/03 05:09:23;;;;;;;3.50;3.20;;;17.30;63.10;;;;;;5011791;28;20194;-69
2022/12/03 05:11:48;;;;;;;4.25;3.30;;;17.30;63.10;;;;;;5011557;28;20219;-69
2022/12/03 05:14:14;;;;;;;3.60;3.30;;;17.30;63.10;;;;;;5012026;28;20231;-69
2022/12/03 05:16:40;;;;;;;3.92;3.53;;;17.30;63.10;;;;;;5028099;28;20250;-69
2022/12/03 05:19:07;;;;;;;3.60;3.30;;;17.30;63.10;;;;;;5011589;28;20191;-69
2022/12/03 05:21:33;;;;;;;3.45;3.15;;;17.30;63.10;;;;;;5011894;28;20187;-71
2022/12/03 05:23:59;;;;;;;3.92;3.40;;;17.30;63.20;;;;;;5011858;28;20212;-69
2022/12/03 05:26:25;;;;;;;4.38;3.90;;;17.30;63.10;;;;;;5011423;28;20239;-69
2022/12/03 05:28:50;;;;;;;3.80;3.50;;;17.30;63.10;;;;;;5010805;28;20188;-69
2022/12/03 05:31:16;;;;;;;4.15;3.65;;;17.30;63.10;;;;;;5011742;28;20330;-69
2022/12/03 05:33:42;;;;;;;4.00;3.60;;;17.30;63.10;;;;;;5012421;28;20188;-69
2022/12/03 05:36:08;;;;;;;3.70;3.38;;;17.30;63.10;;;;;;5012605;28;20206;-69
2022/12/03 05:38:34;;;;;;;4.70;3.60;;;17.30;63.10;;;;;;5011544;28;20184;-69
2022/12/03 05:40:59;;;;;;;4.03;3.60;;;17.30;63.10;;;;;;4994934;28;20188;-69
2022/12/03 05:43:25;;;;;;;3.75;3.45;;;17.30;63.20;;;;;;5012750;28;20183;-69
2022/12/03 05:45:51;;;;;;;4.32;3.92;;;17.30;63.10;;;;;;5011648;28;20211;-69
2022/12/03 05:48:17;;;;;;;3.83;3.53;;;17.30;63.10;;;;;;5011438;28;20191;-70
2022/12/03 05:50:45;;;;;;;3.40;3.10;;;17.30;63.10;;;;;;5011170;28;20262;-70
2022/12/03 05:53:16;;;;;;;3.97;3.60;;;17.30;63.10;;;;;;4995405;28;20263;-69
2022/12/03 05:55:42;;;;;;;4.05;3.60;;;17.30;63.10;;;;;;5011326;28;20218;-69
2022/12/03 05:58:08;;;;;;;4.13;3.58;;;17.30;63.10;;;;;;5011455;28;20263;-69
2022/12/03 06:00:37;;;;;;;3.60;3.30;;;17.30;63.10;;;;;;5027926;28;20552;-69
2022/12/03 06:03:05;;;;;;;4.40;4.00;;;17.30;63.00;;;;;;5011000;28;20270;-69
2022/12/03 06:05:31;;;;;;;3.90;3.60;;;17.30;63.00;;;;;;4994823;28;20243;-69
2022/12/03 06:07:57;;;;;;;4.03;3.63;;;17.30;63.00;;;;;;5011306;28;20198;-69
2022/12/03 06:10:24;;;;;;;4.35;3.90;;;17.30;63.10;;;;;;5027572;28;20215;-69
2022/12/03 06:12:51;;;;;;;3.88;3.47;;;17.30;63.00;;;;;;5011079;28;20168;-69
2022/12/03 06:15:17;;;;;;;3.85;3.55;;;17.30;63.00;;;;;;4995184;28;20234;-69
2022/12/03 06:17:43;;;;;;;4.20;3.78;;;17.30;63.10;;;;;;5011176;28;20250;-69
2022/12/03 06:20:17;;;;;;;3.65;3.35;;;17.20;63.00;;;;;;5010954;28;20652;-68
2022/12/03 06:22:43;;;;;;;3.95;3.65;;;17.30;63.10;;;;;;4994421;28;20191;-69
2022/12/03 06:25:10;;;;;;;4.20;3.80;;;17.30;63.10;;;;;;5011020;28;20184;-69
2022/12/03 06:27:36;;;;;;;4.30;3.90;;;17.30;63.10;;;;;;5011262;28;20267;-69
2022/12/03 06:30:05;;;;;;;4.32;3.92;;;17.20;62.90;;;;;;5012372;28;20184;-69
2022/12/03 06:32:31;;;;;;;3.92;3.45;;;17.30;63.00;;;;;;5010543;28;20180;-69
2022/12/03 06:34:57;;;;;;;4.30;3.90;;;17.20;62.90;;;;;;5010942;28;20180;-69
2022/12/03 06:37:22;;;;;;;3.50;3.20;;;17.30;63.10;;;;;;5011131;28;20238;-69
2022/12/03 06:39:48;;;;;;;4.13;3.72;;;17.30;63.10;;;;;;4994736;28;20311;-68
2022/12/03 06:42:14;;;;;;;4.57;4.18;;;17.30;63.10;;;;;;5014320;28;20195;-69
2022/12/03 06:44:40;;;;;;;3.90;3.60;;;17.30;63.10;;;;;;5031160;28;20192;-66
2022/12/03 06:47:05;;;;;;;4.30;3.90;;;17.30;63.10;;;;;;5014252;28;20212;-66
2022/12/03 06:49:31;;;;;;;4.15;3.75;;;17.30;63.00;;;;;;4998023;28;20191;-67
2022/12/03 06:51:57;;;;;;;4.30;3.90;;;17.30;63.00;;;;;;5014152;28;20214;-67
2022/12/03 06:54:22;;;;;;;4.70;4.22;;;17.30;62.90;;;;;;4998144;28;20177;-67
2022/12/03 06:56:48;;;;;;;4.25;3.85;;;17.30;63.00;;;;;;5014266;28;20758;-67
2022/12/03 06:59:14;;;;;;;4.60;4.20;;;17.30;62.90;;;;;;5014438;28;20188;-67
2022/12/03 07:01:39;;;;;;;4.30;3.90;;;17.30;63.00;;;;;;5014126;28;20656;-67
2022/12/03 07:04:05;;;;;;;4.03;3.63;;;17.30;62.90;;;;;;5014983;28;20271;-67
2022/12/03 07:06:31;;;;;;;4.55;4.15;;;17.30;62.90;;;;;;5007784;28;20218;-67
2022/12/03 07:08:56;;;;;;;4.35;3.95;;;17.20;62.80;;;;;;5009959;28;20235;-67
2022/12/03 07:11:31;;;;;;;4.72;4.32;;;17.20;62.90;;;;;;5027052;28;20248;-67
2022/12/03 07:14:00;;;;;;;3.92;3.53;;;17.30;63.00;;;;;;4995300;28;20636;-67
2022/12/03 07:16:27;;;;;;;4.75;4.35;;;17.30;62.90;;;;;;4994405;28;20209;-67
2022/12/03 07:18:52;;;;;;;4.47;4.07;;;17.30;62.80;;;;;;5027172;28;20197;-67
2022/12/03 07:21:18;;;;;;;4.22;3.83;;;17.20;62.80;;;;;;5010643;28;20253;-67
2022/12/03 07:23:44;;;;;;;4.25;3.88;;;17.30;62.90;;;;;;5013723;28;20179;-67
2022/12/03 07:26:09;;;;;;;4.07;3.67;;;17.30;62.90;;;;;;5014878;28;20234;-67
2022/12/03 07:28:35;;;;;;;4.20;3.58;;;17.30;62.90;;;;;;5013935;28;20181;-66
2022/12/03 07:31:01;;;;;;;4.50;4.10;;;17.30;62.90;;;;;;4991703;28;20208;-67
2022/12/03 07:33:26;;;;;;;3.63;3.33;;;17.20;62.70;;;;;;4988835;28;20180;-69
2022/12/03 07:35:52;;;;;;;4.10;3.70;;;17.30;62.90;;;;;;4997231;28;20589;-69
2022/12/03 07:38:18;;;;;;;4.20;3.80;;;17.30;62.80;;;;;;5013204;28;20190;-68
2022/12/03 07:40:44;;;;;;;4.00;3.60;;;17.30;62.80;;;;;;5011931;28;20233;-68
2022/12/03 07:43:10;;;;;;;3.85;3.42;;;17.30;62.80;;;;;;4998739;28;20196;-68
2022/12/03 07:45:36;;;;;;;3.80;3.50;;;17.30;63.50;;;;;;4981570;28;20296;-68
2022/12/03 07:48:02;;;;;;;3.90;3.58;;;17.30;62.80;;;;;;4993648;28;20181;-68
2022/12/03 07:50:27;;;;;;;3.53;3.22;;;17.30;62.80;;;;;;4993767;28;20243;-68
2022/12/03 07:52:54;;;;;;;3.88;3.53;;;17.30;62.80;;;;;;4992810;28;20182;-68
2022/12/03 07:55:20;;;;;;;3.83;3.50;;;17.30;62.80;;;;;;4990756;28;20184;-68
2022/12/03 07:57:47;;;;;;;4.40;3.67;;;17.30;62.70;;;;;;4993575;28;20177;-70
2022/12/03 08:00:14;;;;;;;3.80;3.45;;;17.30;62.80;;;;;;4993485;28;20181;-70
2022/12/03 08:02:40;;;;;;;3.80;3.50;;;17.30;62.80;;;;;;4993182;28;20180;-70
2022/12/03 08:05:06;;;;;;;3.95;3.55;;;17.20;62.70;;;;;;4993384;28;20550;-69
2022/12/03 08:07:32;;;;;;;4.20;3.80;;;17.30;62.80;;;;;;4976790;28;20181;-70
2022/12/03 08:09:58;;;;;;;4.10;3.70;;;17.30;62.70;;;;;;4993066;28;20275;-69
2022/12/03 08:12:39;;;;;;;3.65;3.35;;;17.30;62.70;;;;;;4976782;28;20572;-70
2022/12/03 08:15:13;;;;;;;3.88;3.58;;;17.20;62.70;;;;;;4993378;28;20264;-69
2022/12/03 08:17:41;;;;;;;3.80;3.50;;;17.30;62.80;;;;;;4977109;28;20687;-69
2022/12/03 08:20:23;;;;;;;4.40;4.00;;;17.30;62.70;;;;;;4993352;28;20201;-69
2022/12/03 08:22:51;;;;;;;5.65;3.90;;;17.30;62.70;;;;;;5001236;28;20183;-69
2022/12/03 08:25:31;;;;;;;4.40;4.00;;;17.30;62.70;;;;;;5028893;28;20165;-69
2022/12/03 08:28:21;;;;;;;4.38;3.97;;;17.30;62.70;;;;;;5012383;28;20202;-70
2022/12/03 08:30:57;;;;;;;3.90;3.60;;;17.30;62.60;;;;;;5012266;28;20222;-69
2022/12/03 08:33:29;;;;;;;4.75;3.83;;;17.30;62.50;;;;;;4995706;28;20184;-69
2022/12/03 08:35:55;;;;;;;4.75;4.35;;;17.30;63.50;;;;;;5012463;28;20302;-70
2022/12/03 08:38:23;;;;;;;4.40;4.00;;;17.20;62.60;;;;;;5012314;28;20279;-69
2022/12/03 08:40:54;;;;;;;3.88;3.47;;;17.30;62.70;;;;;;5012259;28;20188;-70
2022/12/03 08:43:25;;;;;;;4.10;3.70;;;17.30;62.70;;;;;;5011946;28;20188;-70
2022/12/03 08:45:54;;;;;;;4.40;4.00;;;17.30;62.60;;;;;;5011771;28;20207;-69
2022/12/03 08:48:31;;;;;;;4.40;4.00;;;17.30;62.80;;;;;;5012445;28;20276;-69
2022/12/03 08:51:17;;;;;;;4.30;3.90;;;17.30;62.50;;;;;;5012065;28;20239;-69
2022/12/03 08:53:56;;;;;;;4.07;3.67;;;17.30;62.50;;;;;;5011739;28;20619;-70
2022/12/03 08:56:31;;;;;;;4.25;3.80;;;17.30;62.50;;;;;;5011882;28;20199;-69
2022/12/03 08:59:01;;;;;;;4.40;4.00;;;17.30;62.50;;;;;;5012242;28;20188;-69
2022/12/03 09:01:29;;;;;;;4.60;3.95;;;17.30;62.60;;;;;;5011978;28;20176;-70
2022/12/03 09:04:14;;;;;;;4.43;4.03;;;17.30;62.60;;;;;;5012017;28;20238;-70
2022/12/03 09:06:40;;;;;;;4.03;3.63;;;17.30;62.60;;;;;;5011691;28;20211;-69
2022/12/03 09:09:05;;;;;;;4.15;3.75;;;17.30;62.70;;;;;;5011815;28;20204;-70
2022/12/03 09:11:31;;;;;;;4.10;3.60;;;17.30;62.60;;;;;;5011710;28;20302;-69
2022/12/03 09:13:57;;;;;;;3.58;3.28;;;17.30;62.70;;;;;;5011807;28;20215;-70
2022/12/03 09:16:22;;;;;;;4.85;4.40;;;17.30;62.60;;;;;;5011909;28;20243;-69
2022/12/03 09:18:48;;;;;;;4.07;3.67;;;17.30;62.60;;;;;;5011622;28;20279;-69
2022/12/03 09:21:14;;;;;;;5.00;3.75;;;17.30;62.60;;;;;;5011527;28;20188;-70
2022/12/03 09:23:39;;;;;;;4.38;3.97;;;17.30;62.60;;;;;;5011670;28;20219;-70
2022/12/03 09:26:05;;;;;;;4.40;3.95;;;17.30;62.60;;;;;;5011556;28;20230;-69
2022/12/03 09:28:31;;;;;;;4.78;4.28;;;17.30;62.50;;;;;;5021416;22;20245;-71
2022/12/03 09:30:57;;;;;;;5.07;4.57;;;17.30;62.50;;;;;;4983065;28;20257;-71
2022/12/03 09:33:23;;;;;;;4.40;4.00;;;17.30;62.50;;;;;;4956160;28;20197;-70
2022/12/03 09:35:49;;;;;;;4.57;3.75;;;17.30;62.50;;;;;;4988659;28;20185;-71
2022/12/03 09:38:15;;;;;;;4.30;3.90;;;17.30;62.50;;;;;;4972775;28;20292;-72
2022/12/03 09:40:41;;;;;;;4.10;3.80;;;17.20;62.40;;;;;;4976365;28;20718;-72
2022/12/03 09:43:07;;;;;;;5.22;3.85;;;17.30;62.50;;;;;;4991488;28;20279;-71
2022/12/03 09:45:33;;;;;;;4.28;3.88;;;17.30;62.50;;;;;;5008263;28;20181;-71
2022/12/03 09:48:01;;;;;;;4.18;3.78;;;17.30;62.60;;;;;;5007938;28;20243;-70
2022/12/03 09:50:27;;;;;;;4.35;3.95;;;17.30;62.60;;;;;;4975414;28;20304;-71
2022/12/03 09:52:59;;;;;;;4.15;3.75;;;17.30;62.50;;;;;;4991621;28;20204;-72
2022/12/03 09:55:27;;;;;;;3.47;3.17;;;17.20;62.50;;;;;;4991882;28;20169;-71
2022/12/03 09:57:55;;;;;;;4.10;3.70;;;17.30;62.60;;;;;;4991623;28;20201;-71
2022/12/03 10:00:28;;;;;;;4.25;3.70;;;17.30;62.60;;;;;;4975898;28;20189;-71
2022/12/03 10:03:00;;;;;;;4.70;4.28;;;17.30;62.50;;;;;;4991748;28;20189;-71
2022/12/03 10:05:28;;;;;;;5.07;4.13;;;17.30;62.50;;;;;;4991877;28;20192;-71
2022/12/03 10:08:04;;;;;;;4.60;4.15;;;17.30;62.40;;;;;;5008283;28;20211;-71
2022/12/03 10:10:30;;;;;;;4.50;4.10;;;17.30;62.40;;;;;;4975764;28;20240;-71
2022/12/03 10:12:56;;;;;;;5.93;3.72;;;17.30;62.40;;;;;;4987676;28;20181;-71
2022/12/03 10:15:23;;;;;;;4.25;3.80;;;17.30;62.30;;;;;;4973237;28;20543;-71
2022/12/03 10:17:53;;;;;;;4.30;3.70;;;17.30;62.30;;;;;;4966926;28;20205;-72
2022/12/03 10:20:23;;;;;;;4.03;3.72;;;17.30;62.40;;;;;;4976190;28;20185;-71
2022/12/03 10:22:49;;;;;;;4.50;4.10;;;17.30;62.40;;;;;;4959754;28;20182;-71
2022/12/03 10:25:20;;;;;;;4.40;4.00;;;17.30;62.40;;;;;;4976097;28;20225;-71
2022/12/03 10:28:02;;;;;;;4.05;3.67;;;17.30;62.50;;;;;;4975594;28;20213;-71
2022/12/03 10:30:28;;;;;;;3.80;3.50;;;17.30;62.40;;;;;;4976855;28;20617;-72
2022/12/03 10:32:57;;;;;;;4.43;3.80;;;17.30;62.30;;;;;;4989542;28;20192;-70
2022/12/03 10:35:44;;;;;;;4.88;4.30;;;17.30;62.30;;;;;;4978587;28;20185;-70
2022/12/03 10:38:16;;;;;;;4.20;3.80;;;17.30;62.30;;;;;;5008740;28;20218;-71
2022/12/03 10:40:42;;;;;;;4.15;3.78;;;17.30;62.30;;;;;;4994778;28;20247;-72
2022/12/03 10:43:17;;;;;;;4.63;4.20;;;17.30;62.40;;;;;;5011172;28;20185;-71
2022/12/03 10:46:08;;;;;;;4.53;4.13;;;17.30;62.30;;;;;;5011218;28;20279;-71
2022/12/03 10:48:34;;;;;;;3.78;3.47;;;17.20;62.10;;;;;;5011020;28;20585;-71
2022/12/03 10:51:05;;;;;;;5.22;4.05;;;17.30;62.30;;;;;;5010678;28;20208;-71
2022/12/03 10:53:39;;;;;;;4.47;4.07;;;17.30;62.20;;;;;;4994478;28;20707;-71
2022/12/03 10:56:10;;;;;;;4.40;4.00;;;17.30;62.30;;;;;;5010943;28;20181;-72
2022/12/03 10:58:39;;;;;;;4.45;4.05;;;17.30;62.40;;;;;;4994462;28;20224;-71
2022/12/03 11:01:18;;;;;;;3.95;3.55;;;17.30;62.40;;;;;;4994602;28;20185;-71
2022/12/03 11:03:44;;;;;;;4.10;3.70;;;17.30;62.20;;;;;;4994740;28;20185;-72
2022/12/03 11:06:22;;;;;;;4.22;3.70;;;17.30;62.20;;;;;;4994678;28;20192;-71
2022/12/03 11:08:52;;;;;;;4.43;3.97;;;17.30;62.20;;;;;;4994588;28;20657;-71
2022/12/03 11:11:27;;;;;;;4.15;3.80;;;17.30;62.10;;;;;;4994537;28;20213;-71
2022/12/03 11:13:59;;;;;;;4.32;3.92;;;17.30;62.20;;;;;;4993817;28;20177;-71
2022/12/03 11:16:40;;;;;;;4.30;3.90;;;17.30;62.00;;;;;;4993913;28;20189;-71
2022/12/03 11:19:17;;;;;;;5.72;4.28;;;17.30;62.10;;;;;;4994288;28;20681;-71
2022/12/03 11:22:04;;;;;;;5.05;3.92;;;17.30;62.10;;;;;;5010531;28;20243;-72
2022/12/03 11:24:32;;;;;;;4.88;4.30;;;17.30;62.20;;;;;;4994009;28;20193;-71
2022/12/03 11:26:59;;;;;;;5.10;3.83;;;17.30;62.20;;;;;;4992850;28;20188;-71
2022/12/03 11:29:43;;;;;;;6.88;4.18;;;17.30;62.20;;;;;;4994109;28;20231;-72
2022/12/03 11:32:09;;;;;;;4.50;4.10;;;17.20;62.00;;;;;;4992999;28;20208;-69
2022/12/03 11:34:34;;;;;;;4.85;4.18;;;17.30;62.10;;;;;;4993808;28;20567;-72
2022/12/03 11:37:09;;;;;;;4.25;3.85;;;17.30;62.10;;;;;;4977078;28;20214;-70
2022/12/03 11:39:50;;;;;;;4.57;4.10;;;17.30;62.10;;;;;;4995878;28;20200;-71
2022/12/03 11:42:24;;;;;;;5.53;3.70;;;17.30;62.00;;;;;;4990180;28;20198;-70
2022/12/03 11:45:07;;;;;;;4.32;3.92;;;17.30;62.10;;;;;;4974317;28;20189;-71
2022/12/03 11:48:00;;;;;;;4.40;4.00;;;17.30;62.20;;;;;;4974166;28;20209;-71
2022/12/03 11:50:37;;;;;;;4.38;3.97;;;17.30;62.20;;;;;;4974439;28;20269;-71
2022/12/03 11:53:18;;;;;;;4.40;4.00;;;17.30;62.00;;;;;;4974257;28;20203;-71
2022/12/03 11:55:50;;;;;;;4.20;3.80;;;17.30;62.00;;;;;;4991084;28;20178;-71
2022/12/03 11:58:29;;;;;;;4.63;4.22;;;17.30;62.00;;;;;;4975140;28;20213;-71
2022/12/03 12:00:58;;;;;;;5.05;4.53;;;17.30;62.00;;;;;;4974775;28;20280;-71
2022/12/03 12:03:44;;;;;;;4.43;4.03;;;17.30;62.10;;;;;;4973883;28;20192;-71
2022/12/03 12:06:14;;;;;;;4.57;4.15;;;17.30;62.00;;;;;;4990492;28;20174;-71
2022/12/03 12:08:56;;;;;;;6.70;3.97;;;17.30;62.10;;;;;;4974513;28;20210;-71
2022/12/03 12:11:40;;;;;;;4.15;3.75;;;17.30;62.00;;;;;;4974046;28;20209;-71
2022/12/03 12:14:11;;;;;;;5.00;4.50;;;17.30;62.10;;;;;;4974069;28;20181;-71
2022/12/03 12:17:27;;;;;;;4.80;4.30;;;17.30;62.10;;;;;;4974133;28;20190;-71
2022/12/03 12:20:26;;;;;;;4.40;4.00;;;17.30;62.00;;;;;;4973917;28;20229;-72
2022/12/03 12:23:15;;;;;;;4.30;3.90;;;17.30;62.00;;;;;;4973342;28;20192;-71
2022/12/03 12:25:40;;;;;;;5.40;4.30;;;17.30;62.10;;;;;;4973379;28;20185;-71
2022/12/03 12:28:07;;;;;;;4.82;4.30;;;17.30;62.00;;;;;;4973586;28;20225;-71
2022/12/03 12:30:33;;;;;;;4.50;4.10;;;17.30;62.00;;;;;;4973413;28;20214;-71
2022/12/03 12:33:21;;;;;;;5.90;4.43;;;17.30;62.00;;;;;;4973269;28;20661;-72
2022/12/03 12:35:47;;;;;;;4.65;3.80;;;17.30;62.00;;;;;;4973503;28;20273;-71
2022/12/03 12:38:20;;;;;;;4.47;4.05;;;17.30;62.10;;;;;;4973057;28;20241;-72
2022/12/03 12:40:48;;;;;;;4.95;4.13;;;17.30;62.00;;;;;;4973255;28;20276;-71
2022/12/03 12:43:23;;;;;;;4.35;3.95;;;17.30;62.00;;;;;;4973028;28;20244;-71
2022/12/03 12:45:54;;;;;;;4.75;3.92;;;17.30;62.00;;;;;;4974304;28;20181;-71
2022/12/03 12:48:26;;;;;;;4.63;4.10;;;17.30;62.10;;;;;;4989280;28;20201;-71
2022/12/03 12:51:00;;;;;;;4.90;4.50;;;17.30;62.10;;;;;;4972975;28;20629;-71
2022/12/03 12:53:38;;;;;;;4.60;4.10;;;17.30;62.10;;;;;;4972881;28;20174;-71
2022/12/03 12:56:28;;;;;;;4.65;4.22;;;17.30;62.00;;;;;;4988968;28;20188;-72
2022/12/03 12:58:59;;;;;;;5.75;3.80;;;17.30;62.00;;;;;;4973050;28;20216;-71
2022/12/03 13:01:31;;;;;;;5.07;4.10;;;17.30;62.00;;;;;;4973274;28;20213;-71
2022/12/03 13:03:57;;;;;;;4.43;4.03;;;17.30;62.00;;;;;;4972640;28;20186;-71
2022/12/03 13:06:27;;;;;;;4.55;4.05;;;17.30;62.00;;;;;;4973081;28;20281;-71
2022/12/03 13:08:54;;;;;;;5.20;4.30;;;17.30;62.00;;;;;;4988821;28;20197;-71
2022/12/03 13:11:41;;;;;;;4.47;4.07;;;17.30;62.00;;;;;;4972768;28;20220;-71
2022/12/03 13:14:18;;;;;;;4.47;4.07;;;17.30;62.00;;;;;;4984773;28;20203;-71
2022/12/03 13:16:47;;;;;;;4.22;3.83;;;17.30;62.00;;;;;;4975992;28;20213;-70